createdAt,value
2022-10-07T00:00:55.106Z,79.09
2022-10-07T00:03:31.380Z,79.28
2022-10-07T00:06:07.581Z,79.43
2022-10-07T00:08:36.196Z,79.50
2022-10-07T00:11:06.456Z,79.53
2022-10-07T00:13:33.588Z,79.60
2022-10-07T00:16:09.977Z,79.66
2022-10-07T00:18:37.376Z,79.87
2022-10-07T00:21:07.714Z,80.01
2022-10-07T00:23:37.769Z,80.12
2022-10-07T00:26:07.659Z,80.13
2022-10-07T00:28:36.629Z,80.26
2022-10-07T00:31:08.209Z,80.28
2022-10-07T00:33:37.555Z,80.19
2022-10-07T00:36:35.436Z,80.02
2022-10-07T00:39:06.099Z,79.76
2022-10-07T00:41:39.605Z,79.60
2022-10-07T00:44:35.325Z,79.50
2022-10-07T00:47:25.737Z,79.48
2022-10-07T00:50:18.689Z,79.46
2022-10-07T00:52:48.922Z,79.43
2022-10-07T00:55:21.154Z,79.40
2022-10-07T00:57:49.222Z,79.37
2022-10-07T01:00:16.034Z,79.37
2022-10-07T01:02:42.960Z,79.35
2022-10-07T01:05:13.626Z,79.32
2022-10-07T01:07:40.527Z,79.26
2022-10-07T01:10:08.826Z,79.11
2022-10-07T01:12:41.491Z,78.98
2022-10-07T01:15:24.277Z,78.87
2022-10-07T01:18:17.339Z,78.85
2022-10-07T01:21:00.286Z,78.87
2022-10-07T01:23:45.005Z,78.84
2022-10-07T01:26:14.152Z,78.80
2022-10-07T01:28:44.326Z,78.74
2022-10-07T01:31:14.228Z,78.69
2022-10-07T01:33:41.306Z,78.93
2022-10-07T01:36:12.241Z,78.98
2022-10-07T01:38:42.800Z,78.91
2022-10-07T01:41:14.572Z,78.72
2022-10-07T01:43:41.992Z,78.50
2022-10-07T01:46:13.499Z,78.38
2022-10-07T01:48:40.160Z,78.31
2022-10-07T01:51:07.773Z,78.96
2022-10-07T01:54:08.349Z,79.25
2022-10-07T01:57:15.962Z,79.26
2022-10-07T02:00:11.579Z,79.27
2022-10-07T02:03:08.934Z,79.30
2022-10-07T02:06:17.227Z,79.27
2022-10-07T02:08:51.159Z,79.21
2022-10-07T02:11:29.602Z,78.96
2022-10-07T02:14:23.808Z,78.80
2022-10-07T02:17:03.415Z,78.76
2022-10-07T02:19:40.389Z,78.74
2022-10-07T02:22:07.536Z,78.76
2022-10-07T02:24:35.473Z,78.78
2022-10-07T02:27:07.676Z,78.84
2022-10-07T02:29:36.870Z,78.89
2022-10-07T02:32:07.409Z,78.94
2022-10-07T02:34:35.597Z,79.01
2022-10-07T02:37:06.982Z,79.30
2022-10-07T02:39:33.583Z,79.13
2022-10-07T02:42:04.558Z,79.05
2022-10-07T02:45:03.606Z,79.03
2022-10-07T02:47:55.863Z,78.89
2022-10-07T02:50:25.970Z,78.88
2022-10-07T02:52:55.042Z,79.05
2022-10-07T02:55:25.352Z,79.09
2022-10-07T02:57:57.297Z,79.07
2022-10-07T03:00:23.978Z,79.12
2022-10-07T03:02:57.169Z,79.28
2022-10-07T03:05:25.384Z,79.37
2022-10-07T03:07:58.637Z,79.32
2022-10-07T03:10:28.583Z,79.17
2022-10-07T03:12:55.093Z,79.15
2022-10-07T03:15:22.998Z,79.28
2022-10-07T03:17:49.839Z,79.29
2022-10-07T03:20:16.367Z,79.20
2022-10-07T03:22:44.099Z,79.22
2022-10-07T03:25:11.975Z,79.08
2022-10-07T03:27:39.049Z,79.13
2022-10-07T03:30:06.438Z,78.96
2022-10-07T03:32:33.206Z,78.97
2022-10-07T03:35:00.103Z,79.02
2022-10-07T03:37:29.136Z,79.09
2022-10-07T03:39:55.569Z,79.16
2022-10-07T03:42:23.478Z,79.44
2022-10-07T03:44:50.197Z,79.27
2022-10-07T03:47:17.262Z,79.04
2022-10-07T03:49:44.405Z,78.91
2022-10-07T03:52:11.150Z,78.83
2022-10-07T03:54:37.754Z,78.67
2022-10-07T03:57:24.085Z,78.47
2022-10-07T03:59:52.987Z,78.18
2022-10-07T04:02:22.863Z,78.10
2022-10-07T04:04:52.232Z,78.09
2022-10-07T04:07:20.853Z,77.91
2022-10-07T04:09:47.764Z,78.08
2022-10-07T04:12:14.290Z,78.25
2022-10-07T04:14:40.740Z,78.55
2022-10-07T04:17:07.369Z,78.82
2022-10-07T04:19:35.045Z,79.00
2022-10-07T04:22:07.600Z,79.15
2022-10-07T04:24:35.431Z,79.20
2022-10-07T04:27:04.355Z,79.23
2022-10-07T04:29:35.310Z,79.22
2022-10-07T04:32:05.211Z,79.27
2022-10-07T04:34:32.000Z,79.58
2022-10-07T04:37:00.419Z,79.61
2022-10-07T04:39:42.777Z,79.50
2022-10-07T04:42:33.629Z,79.41
2022-10-07T04:45:00.231Z,78.99
2022-10-07T04:47:29.025Z,78.83
2022-10-07T04:49:55.403Z,78.49
2022-10-07T04:52:26.173Z,77.90
2022-10-07T04:54:53.381Z,77.92
2022-10-07T04:57:20.129Z,77.96
2022-10-07T04:59:46.721Z,78.16
2022-10-07T05:02:13.474Z,78.36
2022-10-07T05:04:40.217Z,78.56
2022-10-07T05:07:07.966Z,78.63
2022-10-07T05:09:34.849Z,78.47
2022-10-07T05:12:01.684Z,78.31
2022-10-07T05:14:29.992Z,78.08
2022-10-07T05:16:56.507Z,78.07
2022-10-07T05:19:22.990Z,78.28
2022-10-07T05:21:49.327Z,78.42
2022-10-07T05:24:15.929Z,78.42
2022-10-07T05:26:42.625Z,78.58
2022-10-07T05:29:09.399Z,78.77
2022-10-07T05:31:35.933Z,78.97
2022-10-07T05:34:02.490Z,79.11
2022-10-07T05:36:34.095Z,79.30
2022-10-07T05:39:00.669Z,79.99
2022-10-07T05:41:28.353Z,79.83
2022-10-07T05:43:54.825Z,79.39
2022-10-07T05:46:23.981Z,79.26
2022-10-07T05:48:52.107Z,79.43
2022-10-07T05:51:19.911Z,79.59
2022-10-07T05:53:47.111Z,79.67
2022-10-07T05:56:21.644Z,79.87
2022-10-07T05:58:49.360Z,80.28
2022-10-07T06:01:18.664Z,80.62
2022-10-07T06:03:50.883Z,80.82
2022-10-07T06:06:18.420Z,80.93
2022-10-07T06:08:46.164Z,81.10
2022-10-07T06:11:34.628Z,81.16
2022-10-07T06:14:01.653Z,81.26
2022-10-07T06:16:28.586Z,81.62
2022-10-07T06:18:55.502Z,81.92
2022-10-07T06:21:28.153Z,82.16
2022-10-07T06:23:57.354Z,82.44
2022-10-07T06:26:24.004Z,82.70
2022-10-07T06:28:50.629Z,82.96
2022-10-07T06:31:21.797Z,83.21
2022-10-07T06:33:49.955Z,83.45
2022-10-07T06:36:17.168Z,85.19
2022-10-07T06:38:49.708Z,83.64
2022-10-07T06:41:16.903Z,80.76
2022-10-07T06:43:43.715Z,77.45
2022-10-07T06:46:17.455Z,74.05
2022-10-07T06:48:45.388Z,72.92
2022-10-07T06:51:17.906Z,68.26
2022-10-07T06:53:44.858Z,65.40
2022-10-07T06:56:13.705Z,63.13
2022-10-07T06:58:40.195Z,62.46
2022-10-07T07:01:06.699Z,63.20
2022-10-07T07:03:33.189Z,62.62
2022-10-07T07:05:59.764Z,57.81
2022-10-07T07:08:28.626Z,56.78
2022-10-07T07:10:55.524Z,58.50
2022-10-07T07:13:22.091Z,60.28
2022-10-07T07:15:57.209Z,61.72
2022-10-07T07:18:24.233Z,65.72
2022-10-07T07:20:51.211Z,62.82
2022-10-07T07:23:18.665Z,56.82
2022-10-07T07:25:45.535Z,56.81
2022-10-07T07:28:14.347Z,58.54
2022-10-07T07:30:41.424Z,60.20
2022-10-07T07:33:08.352Z,61.93
2022-10-07T07:35:40.649Z,63.92
2022-10-07T07:38:07.990Z,63.94
2022-10-07T07:40:38.861Z,64.26
2022-10-07T07:43:06.629Z,63.92
2022-10-07T07:45:36.161Z,61.02
2022-10-07T07:48:03.707Z,57.17
2022-10-07T07:50:30.619Z,56.66
2022-10-07T07:52:59.523Z,57.76
2022-10-07T07:55:25.893Z,59.51
2022-10-07T07:57:52.396Z,60.34
2022-10-07T08:00:19.140Z,62.03
2022-10-07T08:02:45.961Z,63.87
2022-10-07T08:05:12.428Z,63.27
2022-10-07T08:07:39.444Z,62.62
2022-10-07T08:10:06.637Z,59.29
2022-10-07T08:12:33.352Z,56.26
2022-10-07T08:14:59.816Z,56.78
2022-10-07T08:17:26.237Z,58.17
2022-10-07T08:19:54.644Z,59.50
2022-10-07T08:22:23.815Z,60.44
2022-10-07T08:24:50.582Z,61.01
2022-10-07T08:27:16.952Z,61.68
2022-10-07T08:29:43.522Z,61.97
2022-10-07T08:32:10.209Z,63.55
2022-10-07T08:34:36.674Z,62.68
2022-10-07T08:37:03.380Z,57.73
2022-10-07T08:39:31.508Z,57.22
2022-10-07T08:42:12.673Z,57.67
2022-10-07T08:44:41.604Z,57.80
2022-10-07T08:47:34.101Z,57.61
2022-10-07T08:50:23.316Z,57.97
2022-10-07T08:53:07.835Z,56.02
2022-10-07T08:55:45.908Z,56.18
2022-10-07T08:58:47.190Z,55.75
2022-10-07T09:01:25.553Z,55.77
2022-10-07T09:04:06.367Z,54.38
2022-10-07T09:06:38.910Z,53.66
2022-10-07T09:09:23.440Z,50.64
2022-10-07T09:11:50.648Z,50.44
2022-10-07T09:14:30.527Z,47.75
2022-10-07T09:17:07.780Z,46.88
2022-10-07T09:19:41.400Z,45.78
2022-10-07T09:22:34.325Z,45.16
2022-10-07T09:25:20.848Z,44.40
2022-10-07T09:27:48.646Z,44.35
2022-10-07T09:30:16.182Z,44.04
2022-10-07T09:32:49.998Z,43.59
2022-10-07T09:35:21.345Z,43.31
2022-10-07T09:38:01.102Z,42.18
2022-10-07T09:40:32.134Z,41.60
2022-10-07T09:42:59.653Z,41.33
2022-10-07T09:45:33.006Z,41.11
2022-10-07T09:48:06.562Z,39.96
2022-10-07T09:50:41.991Z,40.11
2022-10-07T09:53:31.399Z,40.07
2022-10-07T09:55:58.351Z,39.50
2022-10-07T09:58:29.901Z,39.54
2022-10-07T10:01:01.369Z,38.84
2022-10-07T10:03:33.908Z,38.08
2022-10-07T10:06:02.145Z,37.26
2022-10-07T10:08:33.367Z,37.08
2022-10-07T10:11:04.088Z,36.82
2022-10-07T10:13:38.722Z,36.44
2022-10-07T10:16:28.819Z,36.86
2022-10-07T10:19:01.774Z,37.08
2022-10-07T10:21:32.039Z,36.90
2022-10-07T10:24:09.498Z,36.67
2022-10-07T10:27:06.655Z,37.00
2022-10-07T10:29:40.999Z,36.08
2022-10-07T10:32:48.166Z,36.25
2022-10-07T10:35:30.776Z,35.83
2022-10-07T10:38:00.184Z,35.99
2022-10-07T10:40:47.420Z,35.96
2022-10-07T10:43:34.726Z,35.43
2022-10-07T10:46:39.657Z,35.68
2022-10-07T10:49:44.742Z,35.75
2022-10-07T10:52:26.053Z,35.65
2022-10-07T10:55:22.804Z,35.95
2022-10-07T10:58:02.718Z,36.22
2022-10-07T11:00:59.933Z,35.43
2022-10-07T11:03:43.892Z,35.21
2022-10-07T11:06:14.868Z,35.43
2022-10-07T11:08:44.575Z,35.49
2022-10-07T11:11:20.019Z,35.54
2022-10-07T11:13:59.168Z,35.19
2022-10-07T11:16:48.968Z,35.31
2022-10-07T11:19:35.767Z,36.14
2022-10-07T11:22:02.911Z,36.40
2022-10-07T11:24:34.954Z,36.21
2022-10-07T11:27:26.408Z,35.46
2022-10-07T11:30:16.944Z,35.58
2022-10-07T11:32:58.854Z,35.69
2022-10-07T11:35:33.343Z,36.00
2022-10-07T11:38:14.883Z,35.98
2022-10-07T11:40:52.854Z,36.19
2022-10-07T11:43:32.649Z,36.20
2022-10-07T11:46:22.725Z,36.33
2022-10-07T11:49:05.015Z,36.58
2022-10-07T11:51:40.794Z,36.96
2022-10-07T11:54:14.093Z,36.93
2022-10-07T11:56:49.909Z,36.50
2022-10-07T11:59:45.646Z,36.64
2022-10-07T12:02:27.611Z,36.25
2022-10-07T12:04:58.773Z,36.55
2022-10-07T12:07:31.437Z,36.10
2022-10-07T12:10:01.220Z,36.32
2022-10-07T12:12:46.793Z,36.00
2022-10-07T12:15:35.392Z,35.44
2022-10-07T12:18:05.025Z,35.88
2022-10-07T12:20:34.519Z,36.43
2022-10-07T12:23:19.803Z,36.16
2022-10-07T12:26:00.759Z,36.01
2022-10-07T12:28:45.323Z,36.28
2022-10-07T12:31:15.142Z,36.63
2022-10-07T12:33:44.463Z,37.11
2022-10-07T12:36:29.229Z,37.53
2022-10-07T12:38:55.970Z,38.06
2022-10-07T12:41:39.760Z,37.90
2022-10-07T12:44:31.222Z,37.03
2022-10-07T12:47:10.639Z,37.15
2022-10-07T12:49:50.792Z,37.52
2022-10-07T12:52:42.609Z,37.95
2022-10-07T12:55:16.074Z,38.36
2022-10-07T12:57:51.838Z,38.08
2022-10-07T13:00:27.181Z,37.76
2022-10-07T13:03:40.362Z,37.14
2022-10-07T13:06:35.034Z,36.61
2022-10-07T13:09:14.131Z,36.44
2022-10-07T13:12:02.418Z,36.21
2022-10-07T13:14:47.673Z,36.26
2022-10-07T13:17:45.406Z,36.68
2022-10-07T13:20:23.894Z,36.99
2022-10-07T13:22:50.938Z,37.27
2022-10-07T13:25:19.732Z,37.96
2022-10-07T13:27:53.516Z,37.89
2022-10-07T13:30:42.241Z,38.51
2022-10-07T13:33:35.127Z,39.23
2022-10-07T13:36:16.407Z,38.84
2022-10-07T13:38:45.753Z,39.09
2022-10-07T13:41:29.413Z,39.77
2022-10-07T13:44:03.243Z,40.33
2022-10-07T13:46:32.777Z,40.59
2022-10-07T13:49:00.490Z,41.23
2022-10-07T13:51:36.193Z,41.51
2022-10-07T13:54:07.329Z,41.85
2022-10-07T13:56:40.177Z,42.31
2022-10-07T13:59:17.443Z,42.62
2022-10-07T14:01:50.134Z,43.01
2022-10-07T14:04:22.988Z,43.45
2022-10-07T14:07:15.727Z,43.76
2022-10-07T14:10:00.509Z,44.12
2022-10-07T14:12:33.680Z,44.28
2022-10-07T14:15:11.133Z,44.73
2022-10-07T14:17:51.413Z,45.14
2022-10-07T14:20:34.001Z,45.24
2022-10-07T14:23:27.678Z,45.42
2022-10-07T14:26:00.571Z,45.96
2022-10-07T14:28:34.682Z,46.66
2022-10-07T14:31:22.668Z,46.84
2022-10-07T14:34:12.443Z,47.02
2022-10-07T14:37:16.863Z,47.28
2022-10-07T14:39:48.917Z,47.98
2022-10-07T14:42:21.931Z,47.81
2022-10-07T14:44:49.043Z,48.26
2022-10-07T14:47:20.251Z,48.78
2022-10-07T14:50:01.072Z,49.08
2022-10-07T14:52:35.316Z,49.34
2022-10-07T14:55:25.928Z,48.93
2022-10-07T14:57:53.645Z,48.89
2022-10-07T15:00:29.203Z,49.27
2022-10-07T15:02:56.261Z,49.68
2022-10-07T15:05:23.336Z,49.57
2022-10-07T15:07:50.402Z,49.57
2022-10-07T15:10:24.690Z,49.58
2022-10-07T15:12:51.908Z,49.68
2022-10-07T15:15:19.330Z,49.97
2022-10-07T15:17:46.050Z,50.46
2022-10-07T15:20:15.403Z,50.69
2022-10-07T15:22:43.320Z,50.99
2022-10-07T15:25:11.607Z,51.31
2022-10-07T15:27:38.339Z,51.61
2022-10-07T15:30:06.681Z,51.68
2022-10-07T15:32:34.036Z,51.93
2022-10-07T15:35:01.400Z,52.26
2022-10-07T15:37:28.784Z,52.54
2022-10-07T15:39:55.565Z,52.80
2022-10-07T15:42:25.843Z,53.11
2022-10-07T15:44:53.102Z,53.34
2022-10-07T15:47:20.131Z,53.61
2022-10-07T15:49:46.586Z,53.84
2022-10-07T15:52:13.266Z,53.93
2022-10-07T15:54:40.051Z,54.17
2022-10-07T15:57:07.800Z,54.33
2022-10-07T15:59:35.120Z,54.83
2022-10-07T16:02:03.819Z,55.42
2022-10-07T16:04:30.301Z,56.13
2022-10-07T16:06:57.505Z,56.55
2022-10-07T16:09:24.580Z,56.93
2022-10-07T16:11:53.557Z,57.47
2022-10-07T16:14:20.863Z,57.53
2022-10-07T16:16:52.417Z,57.73
2022-10-07T16:19:19.730Z,58.10
2022-10-07T16:21:46.738Z,58.63
2022-10-07T16:24:15.812Z,58.80
2022-10-07T16:26:43.534Z,59.36
2022-10-07T16:29:36.281Z,59.80
2022-10-07T16:32:03.983Z,60.34
2022-10-07T16:34:30.783Z,61.17
2022-10-07T16:36:58.022Z,61.81
2022-10-07T16:39:25.132Z,62.20
2022-10-07T16:41:52.502Z,64.66
2022-10-07T16:44:20.454Z,63.41
2022-10-07T16:46:48.665Z,59.75
2022-10-07T16:49:17.425Z,55.36
2022-10-07T16:51:45.377Z,54.96
2022-10-07T16:54:16.119Z,56.12
2022-10-07T16:56:49.306Z,57.18
2022-10-07T16:59:24.874Z,58.27
2022-10-07T17:01:56.185Z,59.09
2022-10-07T17:04:27.097Z,59.96
2022-10-07T17:06:54.028Z,60.66
2022-10-07T17:09:23.890Z,61.13
2022-10-07T17:11:50.785Z,61.45
2022-10-07T17:14:20.701Z,63.53
2022-10-07T17:16:51.056Z,62.63
2022-10-07T17:19:23.843Z,61.03
2022-10-07T17:21:52.668Z,60.34
2022-10-07T17:24:21.373Z,57.15
2022-10-07T17:26:49.076Z,56.72
2022-10-07T17:29:21.043Z,58.01
2022-10-07T17:31:50.234Z,59.38
2022-10-07T17:34:20.333Z,60.36
2022-10-07T17:36:50.216Z,61.41
2022-10-07T17:39:18.801Z,62.21
2022-10-07T17:41:52.967Z,64.58
2022-10-07T17:44:26.429Z,63.11
2022-10-07T17:46:56.198Z,59.77
2022-10-07T17:49:23.414Z,56.33
2022-10-07T17:51:50.263Z,56.32
2022-10-07T17:54:17.430Z,57.62
2022-10-07T17:56:46.344Z,59.06
2022-10-07T17:59:13.763Z,60.08
2022-10-07T18:01:41.203Z,60.77
2022-10-07T18:04:14.499Z,61.44
2022-10-07T18:06:44.832Z,62.22
2022-10-07T18:09:15.708Z,64.72
2022-10-07T18:12:01.457Z,63.27
2022-10-07T18:14:51.109Z,59.99
2022-10-07T18:17:23.809Z,56.23
2022-10-07T18:19:51.399Z,56.70
2022-10-07T18:22:19.246Z,58.29
2022-10-07T18:24:46.352Z,59.58
2022-10-07T18:27:13.255Z,60.58
2022-10-07T18:29:40.560Z,61.53
2022-10-07T18:32:08.457Z,63.37
2022-10-07T18:34:35.901Z,63.09
2022-10-07T18:37:06.454Z,62.06
2022-10-07T18:39:34.693Z,59.70
2022-10-07T18:42:04.371Z,56.38
2022-10-07T18:44:34.300Z,56.36
2022-10-07T18:47:01.756Z,57.86
2022-10-07T18:49:29.386Z,59.33
2022-10-07T18:52:00.478Z,60.43
2022-10-07T18:54:30.170Z,61.45
2022-10-07T18:56:57.259Z,63.75
2022-10-07T18:59:24.691Z,62.66
2022-10-07T19:01:51.847Z,60.02
2022-10-07T19:04:22.644Z,56.42
2022-10-07T19:06:53.460Z,56.29
2022-10-07T19:09:22.288Z,57.83
2022-10-07T19:11:50.946Z,59.41
2022-10-07T19:14:19.989Z,60.87
2022-10-07T19:16:48.522Z,61.92
2022-10-07T19:19:22.110Z,63.55
2022-10-07T19:21:54.694Z,64.13
2022-10-07T19:24:42.262Z,62.44
2022-10-07T19:27:09.265Z,59.55
2022-10-07T19:29:37.592Z,56.26
2022-10-07T19:32:08.653Z,56.96
2022-10-07T19:34:36.933Z,58.61
2022-10-07T19:37:05.310Z,60.13
2022-10-07T19:39:33.982Z,61.40
2022-10-07T19:42:02.256Z,63.01
2022-10-07T19:44:33.073Z,63.13
2022-10-07T19:47:03.823Z,63.37
2022-10-07T19:49:56.143Z,63.64
2022-10-07T19:52:21.906Z,60.24
2022-10-07T19:54:50.720Z,59.27
2022-10-07T19:57:21.132Z,60.10
2022-10-07T19:59:48.853Z,61.20
2022-10-07T20:02:16.592Z,63.08
2022-10-07T20:04:44.703Z,64.58
2022-10-07T20:07:12.323Z,62.33
2022-10-07T20:09:39.044Z,58.81
2022-10-07T20:12:05.561Z,58.98
2022-10-07T20:14:33.258Z,60.27
2022-10-07T20:17:00.410Z,61.56
2022-10-07T20:19:27.212Z,63.08
2022-10-07T20:21:55.015Z,63.68
2022-10-07T20:24:21.583Z,64.30
2022-10-07T20:26:48.543Z,64.59
2022-10-07T20:29:16.211Z,61.86
2022-10-07T20:31:44.602Z,58.32
2022-10-07T20:34:15.321Z,58.36
2022-10-07T20:36:43.372Z,59.96
2022-10-07T20:39:39.029Z,61.52
2022-10-07T20:42:21.084Z,63.83
2022-10-07T20:44:49.458Z,63.52
2022-10-07T20:47:18.584Z,60.26
2022-10-07T20:49:47.772Z,56.88
2022-10-07T20:52:21.335Z,57.17
2022-10-07T20:54:49.561Z,58.78
2022-10-07T20:57:23.579Z,60.31
2022-10-07T20:59:51.175Z,61.56
2022-10-07T21:02:20.605Z,63.99
2022-10-07T21:04:48.022Z,62.75
2022-10-07T21:07:16.371Z,59.69
2022-10-07T21:09:43.822Z,56.37
2022-10-07T21:12:13.858Z,56.75
2022-10-07T21:14:42.655Z,58.32
2022-10-07T21:17:10.593Z,59.81
2022-10-07T21:19:37.813Z,61.15
2022-10-07T21:22:05.320Z,63.37
2022-10-07T21:24:33.795Z,62.81
2022-10-07T21:27:06.248Z,59.88
2022-10-07T21:29:37.522Z,56.38
2022-10-07T21:32:08.778Z,56.77
2022-10-07T21:34:35.685Z,58.44
2022-10-07T21:37:04.654Z,60.03
2022-10-07T21:39:31.690Z,61.27
2022-10-07T21:41:58.472Z,63.56
2022-10-07T21:44:26.300Z,62.87
2022-10-07T21:46:53.078Z,59.77
2022-10-07T21:49:22.790Z,56.36
2022-10-07T21:51:49.349Z,56.54
2022-10-07T21:54:16.598Z,58.19
2022-10-07T21:56:45.529Z,59.72
2022-10-07T21:59:13.757Z,60.71
2022-10-07T22:01:41.234Z,61.62
2022-10-07T22:04:16.063Z,63.79
2022-10-07T22:07:01.784Z,62.79
2022-10-07T22:09:28.807Z,59.74
2022-10-07T22:11:56.673Z,56.64
2022-10-07T22:14:23.382Z,57.26
2022-10-07T22:16:50.071Z,59.08
2022-10-07T22:19:19.522Z,60.56
2022-10-07T22:21:46.442Z,61.84
2022-10-07T22:24:13.434Z,64.44
2022-10-07T22:26:45.269Z,63.40
2022-10-07T22:29:14.546Z,60.39
2022-10-07T22:31:41.306Z,57.30
2022-10-07T22:34:08.338Z,57.70
2022-10-07T22:36:36.213Z,59.66
2022-10-07T22:39:03.282Z,61.07
2022-10-07T22:41:30.532Z,63.45
2022-10-07T22:43:58.463Z,62.87
2022-10-07T22:46:28.114Z,60.57
2022-10-07T22:48:57.607Z,58.15
2022-10-07T22:51:27.696Z,58.47
2022-10-07T22:53:56.376Z,60.41
2022-10-07T22:56:26.922Z,62.20
2022-10-07T22:58:59.941Z,64.77
2022-10-07T23:01:31.410Z,63.60
2022-10-07T23:04:00.220Z,60.25
2022-10-07T23:06:27.516Z,58.18
2022-10-07T23:08:54.768Z,59.68
2022-10-07T23:11:23.960Z,61.66
2022-10-07T23:13:51.534Z,64.08
2022-10-07T23:16:21.928Z,63.82
2022-10-07T23:18:52.044Z,61.35
2022-10-07T23:21:24.831Z,58.71
2022-10-07T23:24:04.398Z,59.26
2022-10-07T23:26:34.374Z,60.92
2022-10-07T23:29:01.222Z,63.58
2022-10-07T23:31:30.850Z,63.50
2022-10-07T23:33:58.475Z,61.07
2022-10-07T23:36:25.953Z,58.08
2022-10-07T23:38:53.161Z,58.44
2022-10-07T23:41:24.348Z,60.11
2022-10-07T23:43:56.914Z,61.58
2022-10-07T23:46:25.623Z,64.14
2022-10-07T23:48:52.597Z,63.42
2022-10-07T23:51:22.606Z,60.00
2022-10-07T23:53:49.571Z,58.00
2022-10-07T23:56:17.988Z,58.58
2022-10-07T23:58:44.788Z,60.06
